Portada
METAR-TAF:

METAR-TAF

Aeroports :

Malakula, Vanuatu

latitud: 16-27-26S, longitud: 167-49-42E, altitud: 2 m

Observació

L'informe es va fer fa 2 hores i 22 minuts, a les 06:00 UTC
Vent 2 kt del Sud
Temperatura
Pressió 1007 hPa

METAR: NVSL 300600Z AUTO 18002KT //// // NCD ///// Q1007

Hora: 19:22 (08:22 UTC)

Pronòstic

L'informe es va fer fa 3 hores i 52 minuts, a les 04:30 UTC
Pronòstic vàlid del 30 a les 06 UTC al 31 a les 06 UTC
Vent 5 kt del Est
Visibilitat: 8000 m
Escasses núvols a una alçada de 1000 ft
Núvols disperses a una alçada de 1800 ft
Cel cobert a una alçada de 10000 ft
Escasses núvols a una alçada de 800 ft
Cel ennuvolat a una alçada de 1800 ft
xàfecs de pluja

TAF: NVSL 300430Z 3006/3106 09005KT 9999 FEW010 SCT018 OVC100 INTER 3006/3012 8000 SHRA FEW008 BKN018

Observacions i pronòstics meteorològics de més de 4000 aeroports (METAR i TAF).

Les estacions disponibles són els punts grocs i vermells al mapa.

Posi el ratolí al punt desitjat per veure el nom de l'estació.

Feu clic per veure les observacions i els pronòstics meteorològics.

Per canviar el mapa: feu clic els botons verds amb una creu de color negre per apropar; al botó verd amb un guió per allunyar la imatge; o en les fletxes verdes per a mapes adjacents.


METAR-TAF: